createdAt,value
2019-01-17T00:00:33.324Z,29.00
2019-01-17T00:03:25.033Z,28.50
2019-01-17T00:06:26.084Z,27.70
2019-01-17T00:09:08.278Z,27.13
2019-01-17T00:12:06.168Z,27.80
2019-01-17T00:14:54.451Z,28.10
2019-01-17T00:17:55.191Z,26.60
2019-01-17T00:20:55.824Z,27.27
2019-01-17T00:23:44.613Z,26.10
2019-01-17T00:26:27.934Z,26.70
2019-01-17T00:29:12.019Z,24.93
2019-01-17T00:32:02.345Z,24.50
2019-01-17T00:34:49.251Z,25.90
2019-01-17T00:37:50.089Z,26.63
2019-01-17T00:40:44.608Z,24.93
2019-01-17T00:43:48.425Z,25.60
2019-01-17T00:46:42.956Z,25.60
2019-01-17T00:49:32.807Z,23.00
2019-01-17T00:52:21.032Z,25.63
2019-01-17T00:55:12.674Z,24.10
2019-01-17T00:57:57.037Z,23.63
2019-01-17T01:00:45.660Z,23.63
2019-01-17T01:03:43.612Z,23.40
2019-01-17T01:06:31.925Z,23.57
2019-01-17T01:09:33.056Z,22.53
2019-01-17T01:12:20.397Z,22.73
2019-01-17T01:15:08.056Z,22.77
2019-01-17T01:17:47.328Z,22.57
2019-01-17T01:20:39.226Z,21.73
2019-01-17T01:23:22.125Z,22.17
2019-01-17T01:26:13.646Z,22.00
2019-01-17T01:29:20.683Z,21.70
2019-01-17T01:32:15.408Z,21.93
2019-01-17T01:35:09.860Z,20.60
2019-01-17T01:37:57.516Z,20.63
2019-01-17T01:40:43.661Z,21.33
2019-01-17T01:43:31.036Z,19.90
2019-01-17T01:46:18.511Z,20.10
2019-01-17T01:49:07.501Z,21.47
2019-01-17T01:51:43.777Z,20.57
2019-01-17T01:54:13.613Z,18.87
2019-01-17T01:56:43.439Z,21.13
2019-01-17T01:59:13.376Z,17.97
2019-01-17T02:01:43.084Z,19.87
2019-01-17T02:04:12.937Z,18.20
2019-01-17T02:06:42.850Z,18.50
2019-01-17T02:09:12.495Z,19.50
2019-01-17T02:11:42.192Z,18.30
2019-01-17T02:14:11.840Z,18.33
2019-01-17T02:16:41.771Z,18.43
2019-01-17T02:19:11.691Z,17.27
2019-01-17T02:21:41.621Z,17.63
2019-01-17T02:24:11.460Z,18.20
2019-01-17T02:26:42.440Z,16.93
2019-01-17T02:29:12.278Z,17.30
2019-01-17T02:31:41.956Z,16.77
2019-01-17T02:34:11.895Z,18.23
2019-01-17T02:36:41.736Z,17.60
2019-01-17T02:39:11.544Z,17.37
2019-01-17T02:41:41.401Z,16.67
2019-01-17T02:44:11.012Z,16.60
2019-01-17T02:46:40.854Z,17.47
2019-01-17T02:49:10.449Z,16.50
2019-01-17T02:51:41.735Z,15.90
2019-01-17T02:54:11.351Z,16.77
2019-01-17T02:56:41.095Z,16.23
2019-01-17T02:59:10.811Z,15.73
2019-01-17T03:01:40.644Z,15.80
2019-01-17T03:04:10.351Z,15.90
2019-01-17T03:06:40.007Z,15.77
2019-01-17T03:09:09.704Z,16.00
2019-01-17T03:11:39.678Z,15.87
2019-01-17T03:14:09.489Z,16.97
2019-01-17T03:16:39.408Z,15.00
2019-01-17T03:19:09.250Z,14.10
2019-01-17T03:21:38.870Z,14.77
2019-01-17T03:24:08.700Z,15.43
2019-01-17T03:26:39.661Z,14.27
2019-01-17T03:29:09.481Z,14.67
2019-01-17T03:31:39.316Z,13.73
2019-01-17T03:34:09.253Z,14.87
2019-01-17T03:36:39.065Z,13.80
2019-01-17T03:39:08.720Z,14.40
2019-01-17T03:41:38.513Z,13.50
2019-01-17T03:44:08.364Z,13.93
2019-01-17T03:46:38.171Z,13.50
2019-01-17T03:49:08.127Z,13.60
2019-01-17T03:51:37.935Z,14.83
2019-01-17T03:54:07.772Z,15.23
2019-01-17T03:56:37.490Z,14.33
2019-01-17T03:59:07.321Z,15.33
2019-01-17T04:01:37.254Z,15.10
2019-01-17T04:04:07.201Z,14.83
2019-01-17T04:06:37.033Z,15.07
2019-01-17T04:09:07.878Z,15.73
2019-01-17T04:11:37.710Z,13.47
2019-01-17T04:14:07.429Z,14.17
2019-01-17T04:16:37.049Z,14.50
2019-01-17T04:19:06.823Z,14.50
2019-01-17T04:21:36.607Z,13.90
2019-01-17T04:24:06.354Z,14.30
2019-01-17T04:26:36.164Z,12.90
2019-01-17T04:29:05.985Z,15.23
2019-01-17T04:31:36.032Z,15.87
2019-01-17T04:34:06.759Z,15.90
2019-01-17T04:36:38.524Z,15.17
2019-01-17T04:39:09.008Z,14.87
2019-01-17T04:41:38.925Z,15.47
2019-01-17T04:44:08.670Z,14.20
2019-01-17T04:46:38.464Z,14.43
2019-01-17T04:49:08.019Z,15.00
2019-01-17T04:51:37.750Z,15.27
2019-01-17T04:54:07.574Z,14.83
2019-01-17T04:56:37.503Z,16.77
2019-01-17T04:59:07.213Z,14.07
2019-01-17T05:01:36.940Z,14.07
2019-01-17T05:04:06.881Z,14.30
2019-01-17T05:06:36.808Z,12.63
2019-01-17T05:09:08.398Z,12.83
2019-01-17T05:11:38.218Z,13.27
2019-01-17T05:14:08.261Z,14.73
2019-01-17T05:16:37.964Z,15.20
2019-01-17T05:19:07.919Z,13.17
2019-01-17T05:21:37.525Z,14.33
2019-01-17T05:24:07.260Z,13.63
2019-01-17T05:26:36.889Z,13.03
2019-01-17T05:29:06.820Z,13.40
2019-01-17T05:31:36.655Z,12.90
2019-01-17T05:34:06.480Z,13.50
2019-01-17T05:36:38.585Z,13.03
2019-01-17T05:39:08.649Z,12.93
2019-01-17T05:41:38.035Z,12.20
2019-01-17T05:44:07.489Z,13.07
2019-01-17T05:46:36.902Z,12.13
2019-01-17T05:49:06.589Z,13.57
2019-01-17T05:51:36.501Z,12.90
2019-01-17T05:54:06.333Z,12.87
2019-01-17T05:56:36.005Z,14.17
2019-01-17T05:59:05.786Z,14.27
2019-01-17T06:01:35.615Z,13.60
2019-01-17T06:04:05.543Z,13.83
2019-01-17T06:06:35.290Z,13.63
2019-01-17T06:09:07.556Z,13.70
2019-01-17T06:11:37.388Z,14.23
2019-01-17T06:14:07.212Z,14.00
2019-01-17T06:16:37.043Z,13.80
2019-01-17T06:19:07.678Z,13.97
2019-01-17T06:21:37.432Z,14.80
2019-01-17T06:24:07.256Z,14.60
2019-01-17T06:26:37.102Z,15.57
2019-01-17T06:29:06.901Z,16.40
2019-01-17T06:31:36.740Z,17.40
2019-01-17T06:34:06.577Z,18.00
2019-01-17T06:36:36.001Z,20.20
2019-01-17T06:39:08.373Z,19.70
2019-01-17T06:41:38.083Z,19.80
2019-01-17T06:44:07.823Z,19.70
2019-01-17T06:46:37.665Z,21.50
2019-01-17T06:49:07.506Z,23.63
2019-01-17T06:51:37.332Z,23.10
2019-01-17T06:54:07.164Z,23.73
2019-01-17T06:56:36.872Z,24.77
2019-01-17T06:59:06.593Z,24.97
2019-01-17T07:01:36.547Z,25.00
2019-01-17T07:04:06.282Z,25.70
2019-01-17T07:06:36.084Z,25.37
2019-01-17T07:09:08.490Z,24.80
2019-01-17T07:11:38.208Z,25.50
2019-01-17T07:14:07.946Z,25.93
2019-01-17T07:16:37.766Z,26.47
2019-01-17T07:19:07.610Z,29.23
2019-01-17T07:21:37.426Z,27.93
2019-01-17T07:24:07.245Z,27.70
2019-01-17T07:26:37.183Z,28.10
2019-01-17T07:29:06.926Z,28.30
2019-01-17T07:31:36.841Z,28.43
2019-01-17T07:34:06.773Z,31.30
2019-01-17T07:36:36.502Z,30.40
2019-01-17T07:39:08.268Z,30.77
2019-01-17T07:41:38.009Z,30.17
2019-01-17T07:44:07.820Z,30.43
2019-01-17T07:46:37.311Z,34.27
2019-01-17T07:49:06.963Z,36.77
2019-01-17T07:51:36.701Z,36.60
2019-01-17T07:54:06.521Z,37.30
2019-01-17T07:56:36.270Z,38.43
2019-01-17T07:59:06.082Z,40.13
2019-01-17T08:01:36.031Z,41.10
2019-01-17T08:04:07.139Z,39.67
2019-01-17T08:06:36.800Z,40.77
2019-01-17T08:09:09.502Z,41.57
2019-01-17T08:11:39.346Z,40.90
2019-01-17T08:14:09.152Z,43.60
2019-01-17T08:16:38.987Z,45.37
2019-01-17T08:19:08.627Z,47.87
2019-01-17T08:21:38.452Z,51.60
2019-01-17T08:24:08.385Z,50.73
2019-01-17T08:26:38.310Z,47.77
2019-01-17T08:29:08.017Z,50.40
2019-01-17T08:31:37.762Z,49.63
2019-01-17T08:34:07.585Z,50.63
2019-01-17T08:36:37.425Z,52.47
2019-01-17T08:39:09.286Z,52.93
2019-01-17T08:41:39.129Z,56.63
2019-01-17T08:44:09.047Z,57.97
2019-01-17T08:46:38.798Z,59.43
2019-01-17T08:49:08.608Z,59.73
2019-01-17T08:51:38.466Z,62.00
2019-01-17T08:54:08.156Z,61.60
2019-01-17T08:56:38.107Z,62.93
2019-01-17T08:59:07.921Z,66.53
2019-01-17T09:01:37.874Z,66.30
2019-01-17T09:04:07.676Z,67.77
2019-01-17T09:06:37.526Z,68.13
2019-01-17T09:09:09.815Z,68.37
2019-01-17T09:11:39.336Z,67.50
2019-01-17T09:14:09.163Z,64.70
2019-01-17T09:16:38.980Z,69.27
2019-01-17T09:19:08.729Z,70.37
2019-01-17T09:21:38.543Z,74.80
2019-01-17T09:24:08.371Z,73.27
2019-01-17T09:26:38.214Z,76.20
2019-01-17T09:29:07.917Z,79.87
2019-01-17T09:31:37.572Z,78.83
2019-01-17T09:34:07.282Z,81.17
2019-01-17T09:36:37.026Z,84.10
2019-01-17T09:39:08.986Z,77.47
2019-01-17T09:41:38.731Z,80.07
2019-01-17T09:44:08.417Z,80.37
2019-01-17T09:46:38.087Z,82.90
2019-01-17T09:49:07.884Z,84.73
2019-01-17T09:51:37.738Z,85.83
2019-01-17T09:54:07.850Z,86.03
2019-01-17T09:56:37.680Z,87.30
2019-01-17T09:59:08.613Z,88.50
2019-01-17T10:01:38.380Z,89.87
2019-01-17T10:04:08.206Z,90.73
2019-01-17T10:06:38.325Z,92.67
2019-01-17T10:09:08.668Z,94.17
2019-01-17T10:11:40.221Z,93.10
2019-01-17T10:14:09.852Z,94.67
2019-01-17T10:17:04.274Z,91.30
2019-01-17T10:20:21.479Z,91.57
2019-01-17T10:23:33.781Z,92.50
2019-01-17T10:26:41.576Z,96.67
2019-01-17T10:29:57.252Z,94.83
2019-01-17T10:33:11.278Z,96.40
2019-01-17T10:36:31.183Z,93.37
2019-01-17T10:39:20.468Z,93.67
2019-01-17T10:42:17.501Z,95.97
2019-01-17T10:45:17.632Z,91.57
2019-01-17T10:48:33.193Z,93.40
2019-01-17T10:51:43.254Z,92.87
2019-01-17T10:54:56.930Z,94.23
2019-01-17T10:58:07.560Z,96.90
2019-01-17T11:01:23.934Z,96.03
2019-01-17T11:04:15.364Z,96.27
2019-01-17T11:07:07.103Z,94.87
2019-01-17T11:10:25.920Z,96.30
2019-01-17T11:13:15.186Z,96.43
2019-01-17T11:16:09.319Z,96.57
2019-01-17T11:19:31.640Z,95.80
2019-01-17T11:22:29.681Z,98.50
2019-01-17T11:25:24.205Z,100.87
2019-01-17T11:28:30.761Z,96.20
2019-01-17T11:31:49.415Z,99.77
2019-01-17T11:34:39.942Z,99.50
2019-01-17T11:37:48.059Z,103.03
2019-01-17T11:40:58.653Z,100.73
2019-01-17T11:43:49.606Z,104.00
2019-01-17T11:46:52.761Z,101.03
2019-01-17T11:49:51.429Z,103.23
2019-01-17T11:52:51.310Z,100.23
2019-01-17T11:55:44.449Z,98.53
2019-01-17T11:59:02.671Z,98.07
2019-01-17T12:02:10.592Z,96.50
2019-01-17T12:04:38.598Z,97.73
2019-01-17T12:07:13.454Z,93.13
2019-01-17T12:09:43.162Z,94.97
2019-01-17T12:12:15.870Z,91.07
2019-01-17T12:14:45.696Z,94.27
2019-01-17T12:17:15.636Z,90.30
2019-01-17T12:19:45.357Z,91.43
2019-01-17T12:22:15.280Z,88.40
2019-01-17T12:24:45.204Z,86.43
2019-01-17T12:27:15.024Z,82.30
2019-01-17T12:29:44.761Z,82.07
2019-01-17T12:32:14.560Z,79.10
2019-01-17T12:34:44.442Z,78.83
2019-01-17T12:37:14.256Z,76.30
2019-01-17T12:39:44.137Z,77.87
2019-01-17T12:42:14.037Z,74.80
2019-01-17T12:44:43.955Z,72.37
2019-01-17T12:47:13.663Z,75.50
2019-01-17T12:49:43.296Z,71.03
2019-01-17T12:52:13.232Z,71.90
2019-01-17T12:54:43.067Z,70.60
2019-01-17T12:57:12.880Z,67.40
2019-01-17T12:59:42.621Z,68.37
2019-01-17T13:02:12.377Z,65.10
2019-01-17T13:04:42.161Z,66.07
2019-01-17T13:07:11.795Z,63.20
2019-01-17T13:09:41.627Z,62.57
2019-01-17T13:12:11.452Z,64.40
2019-01-17T13:14:41.206Z,62.87
2019-01-17T13:17:11.007Z,64.70
2019-01-17T13:19:40.977Z,61.23
2019-01-17T13:22:12.095Z,61.60
2019-01-17T13:24:41.834Z,60.07
2019-01-17T13:27:11.796Z,57.37
2019-01-17T13:29:41.687Z,58.47
2019-01-17T13:32:11.426Z,55.93
2019-01-17T13:34:41.224Z,55.07
2019-01-17T13:37:12.105Z,56.20
2019-01-17T13:39:42.024Z,55.13
2019-01-17T13:42:11.585Z,54.50
2019-01-17T13:44:41.499Z,53.60
2019-01-17T13:47:11.245Z,55.27
2019-01-17T13:49:41.049Z,54.40
2019-01-17T13:52:10.677Z,51.00
2019-01-17T13:54:40.484Z,52.43
2019-01-17T13:57:10.327Z,50.80
2019-01-17T13:59:40.141Z,51.80
2019-01-17T14:02:09.690Z,48.80
2019-01-17T14:04:39.399Z,50.73
2019-01-17T14:07:09.348Z,50.00
2019-01-17T14:09:39.186Z,47.57
2019-01-17T14:12:09.008Z,49.10
2019-01-17T14:14:38.813Z,46.40
2019-01-17T14:17:08.668Z,47.40
2019-01-17T14:19:38.268Z,46.77
2019-01-17T14:22:08.102Z,46.80
2019-01-17T14:24:38.030Z,45.57
2019-01-17T14:27:13.888Z,44.83
2019-01-17T14:29:39.333Z,43.17
2019-01-17T14:32:09.194Z,42.93
2019-01-17T14:34:39.106Z,44.57
2019-01-17T14:37:08.635Z,41.97
2019-01-17T14:39:38.554Z,43.00
2019-01-17T14:42:08.589Z,41.70
2019-01-17T14:44:38.408Z,41.53
2019-01-17T14:47:08.044Z,40.60
2019-01-17T14:49:37.769Z,40.50
2019-01-17T14:52:07.704Z,39.00
2019-01-17T14:54:37.414Z,38.50
2019-01-17T14:57:07.158Z,39.10
2019-01-17T14:59:36.967Z,38.70
2019-01-17T15:02:06.713Z,40.03
2019-01-17T15:04:36.643Z,38.73
2019-01-17T15:07:06.485Z,38.47
2019-01-17T15:09:36.288Z,38.13
2019-01-17T15:12:06.243Z,38.50
2019-01-17T15:14:35.852Z,35.70
2019-01-17T15:17:05.794Z,37.67
2019-01-17T15:19:35.409Z,37.13
2019-01-17T15:22:05.354Z,39.10
2019-01-17T15:24:35.217Z,35.63
2019-01-17T15:27:04.919Z,37.33
2019-01-17T15:29:34.619Z,38.00
2019-01-17T15:32:04.457Z,35.80
2019-01-17T15:34:34.197Z,36.03
2019-01-17T15:37:04.136Z,36.70
2019-01-17T15:39:34.075Z,37.03
2019-01-17T15:42:03.774Z,35.30
2019-01-17T15:44:33.515Z,36.17
2019-01-17T15:47:03.449Z,36.27
2019-01-17T15:49:33.377Z,35.63
2019-01-17T15:52:03.119Z,35.03
2019-01-17T15:54:32.948Z,36.30
2019-01-17T15:57:02.660Z,36.27
2019-01-17T15:59:32.573Z,33.83
2019-01-17T16:02:02.453Z,36.07
2019-01-17T16:04:33.236Z,35.47
2019-01-17T16:07:02.790Z,36.40
2019-01-17T16:09:32.413Z,35.33
2019-01-17T16:12:02.348Z,35.03
2019-01-17T16:14:32.176Z,36.20
2019-01-17T16:17:02.110Z,36.23
2019-01-17T16:19:31.875Z,36.20
2019-01-17T16:22:01.777Z,36.80
2019-01-17T16:24:31.595Z,36.50
2019-01-17T16:27:01.421Z,36.63
2019-01-17T16:29:31.117Z,36.90
2019-01-17T16:32:01.082Z,36.50
2019-01-17T16:34:30.824Z,37.63
2019-01-17T16:37:00.654Z,36.63
2019-01-17T16:39:30.581Z,35.50
2019-01-17T16:42:00.428Z,37.27
2019-01-17T16:44:30.321Z,36.10
2019-01-17T16:47:02.209Z,37.23
2019-01-17T16:49:32.037Z,36.60
2019-01-17T16:52:01.989Z,36.10
2019-01-17T16:54:31.596Z,35.93
2019-01-17T16:57:01.669Z,35.70
2019-01-17T16:59:31.442Z,34.00
2019-01-17T17:02:01.388Z,35.50
2019-01-17T17:04:31.108Z,34.00
2019-01-17T17:07:00.842Z,34.50
2019-01-17T17:09:30.583Z,33.93
2019-01-17T17:12:00.493Z,32.93
2019-01-17T17:14:32.074Z,33.37
2019-01-17T17:17:01.911Z,32.90
2019-01-17T17:19:34.674Z,32.90
2019-01-17T17:22:04.473Z,30.63
2019-01-17T17:24:34.399Z,33.60
2019-01-17T17:27:04.208Z,30.53
2019-01-17T17:29:34.828Z,31.43
2019-01-17T17:32:04.764Z,31.40
2019-01-17T17:34:34.581Z,30.53
2019-01-17T17:37:04.326Z,31.97
2019-01-17T17:39:34.176Z,32.40
2019-01-17T17:42:03.972Z,30.97
2019-01-17T17:44:33.648Z,30.40
2019-01-17T17:47:03.545Z,32.20
2019-01-17T17:49:33.368Z,32.10
2019-01-17T17:52:03.309Z,31.70
2019-01-17T17:54:33.013Z,29.33
2019-01-17T17:57:02.745Z,30.07
2019-01-17T17:59:32.594Z,32.93
2019-01-17T18:02:06.860Z,108.43
2019-01-17T18:04:36.692Z,77.70
2019-01-17T18:07:06.600Z,70.33
2019-01-17T18:09:36.364Z,76.60
2019-01-17T18:12:06.015Z,91.00
2019-01-17T18:14:35.874Z,55.57
2019-01-17T18:17:06.694Z,55.97
2019-01-17T18:19:38.258Z,64.37
2019-01-17T18:22:07.994Z,61.57
2019-01-17T18:24:38.676Z,62.10
2019-01-17T18:27:08.371Z,59.70
2019-01-17T18:29:38.379Z,60.80
2019-01-17T18:32:08.751Z,61.00
2019-01-17T18:34:38.347Z,60.10
2019-01-17T18:37:08.114Z,57.17
2019-01-17T18:39:38.092Z,57.30
2019-01-17T18:42:07.899Z,54.70
2019-01-17T18:44:37.403Z,56.23
2019-01-17T18:47:07.322Z,54.50
2019-01-17T18:49:36.838Z,54.57
2019-01-17T18:52:06.612Z,52.70
2019-01-17T18:54:36.193Z,53.40
2019-01-17T18:57:05.899Z,51.87
2019-01-17T18:59:35.760Z,51.43
2019-01-17T19:02:05.576Z,50.10
2019-01-17T19:04:35.312Z,51.90
2019-01-17T19:07:05.139Z,50.20
2019-01-17T19:09:35.177Z,51.47
2019-01-17T19:12:05.002Z,48.97
2019-01-17T19:14:34.835Z,49.60
2019-01-17T19:17:04.761Z,48.83
2019-01-17T19:19:34.688Z,48.27
2019-01-17T19:22:04.914Z,48.37
2019-01-17T19:24:34.635Z,48.77
2019-01-17T19:27:04.711Z,47.73
2019-01-17T19:29:34.415Z,50.33
2019-01-17T19:32:04.336Z,47.37
2019-01-17T19:34:33.981Z,50.17
2019-01-17T19:37:03.801Z,49.70
2019-01-17T19:39:33.639Z,48.53
2019-01-17T19:42:03.570Z,49.60
2019-01-17T19:44:33.300Z,50.00
2019-01-17T19:47:03.008Z,50.23
2019-01-17T19:49:32.648Z,50.27
2019-01-17T19:52:02.468Z,49.77
2019-01-17T19:54:32.310Z,48.50
2019-01-17T19:57:02.031Z,50.13
2019-01-17T19:59:31.550Z,48.40
2019-01-17T20:02:01.474Z,48.23
2019-01-17T20:04:31.338Z,47.17
2019-01-17T20:07:00.956Z,46.83
2019-01-17T20:09:30.775Z,47.03
2019-01-17T20:12:00.596Z,47.40
2019-01-17T20:14:30.432Z,49.17
2019-01-17T20:16:59.821Z,45.30
2019-01-17T20:19:29.586Z,45.63
2019-01-17T20:21:59.496Z,45.70
2019-01-17T20:24:29.340Z,45.03
2019-01-17T20:26:59.266Z,43.97
2019-01-17T20:29:28.977Z,43.83
2019-01-17T20:31:58.814Z,42.27
2019-01-17T20:34:28.665Z,41.47
2019-01-17T20:36:58.284Z,42.07
2019-01-17T20:39:28.010Z,41.70
2019-01-17T20:41:57.842Z,41.60
2019-01-17T20:44:27.772Z,42.13
2019-01-17T20:46:57.800Z,40.10
2019-01-17T20:49:27.747Z,40.43
2019-01-17T20:51:57.657Z,41.73
2019-01-17T20:54:27.381Z,65.67
2019-01-17T20:56:57.301Z,79.13
2019-01-17T20:59:27.145Z,80.13
2019-01-17T21:02:18.455Z,81.83
2019-01-17T21:04:48.371Z,81.37
2019-01-17T21:07:18.110Z,81.70
2019-01-17T21:09:47.672Z,84.97
2019-01-17T21:12:17.613Z,82.77
2019-01-17T21:14:47.456Z,80.57
2019-01-17T21:17:17.032Z,80.77
2019-01-17T21:19:46.853Z,83.77
2019-01-17T21:22:16.792Z,80.33
2019-01-17T21:24:46.523Z,81.40
2019-01-17T21:27:16.465Z,77.73
2019-01-17T21:29:46.366Z,80.53
2019-01-17T21:32:15.917Z,80.43
2019-01-17T21:34:45.863Z,77.53
2019-01-17T21:37:15.779Z,75.67
2019-01-17T21:39:45.692Z,74.70
2019-01-17T21:42:15.740Z,76.70
2019-01-17T21:44:45.357Z,74.23
2019-01-17T21:47:15.213Z,73.50
2019-01-17T21:49:44.902Z,71.40
2019-01-17T21:52:14.634Z,72.20
2019-01-17T21:54:44.573Z,73.00
2019-01-17T21:57:14.513Z,72.80
2019-01-17T21:59:44.441Z,71.30
2019-01-17T22:02:14.394Z,72.67
2019-01-17T22:04:44.203Z,68.10
2019-01-17T22:07:13.929Z,71.07
2019-01-17T22:09:44.420Z,68.13
2019-01-17T22:12:14.214Z,67.17
2019-01-17T22:14:43.712Z,67.27
2019-01-17T22:17:13.553Z,68.77
2019-01-17T22:19:43.061Z,64.60
2019-01-17T22:22:12.804Z,64.73
2019-01-17T22:24:42.309Z,64.47
2019-01-17T22:27:12.140Z,62.97
2019-01-17T22:29:42.870Z,63.57
2019-01-17T22:32:12.735Z,65.30
2019-01-17T22:34:42.548Z,63.80
2019-01-17T22:37:12.513Z,62.17
2019-01-17T22:39:42.217Z,61.23
2019-01-17T22:42:12.156Z,60.30
2019-01-17T22:44:41.983Z,60.33
2019-01-17T22:47:11.711Z,60.23
2019-01-17T22:49:41.523Z,58.20
2019-01-17T22:52:11.269Z,59.50
2019-01-17T22:54:40.999Z,56.03
2019-01-17T22:57:10.925Z,56.63
2019-01-17T22:59:40.861Z,56.60
2019-01-17T23:02:10.682Z,55.17
2019-01-17T23:04:40.309Z,56.30
2019-01-17T23:07:10.250Z,55.83
2019-01-17T23:09:39.954Z,53.70
2019-01-17T23:12:09.795Z,54.10
2019-01-17T23:14:39.508Z,51.87
2019-01-17T23:17:09.150Z,51.73
2019-01-17T23:19:39.063Z,51.43
2019-01-17T23:22:08.820Z,52.00
2019-01-17T23:24:38.529Z,51.60
2019-01-17T23:27:08.358Z,50.20
2019-01-17T23:29:38.179Z,50.27
2019-01-17T23:34:42.152Z,48.87
2019-01-17T23:37:11.881Z,50.10
2019-01-17T23:39:41.485Z,48.00
2019-01-17T23:42:11.438Z,47.63
2019-01-17T23:44:41.122Z,47.97
2019-01-17T23:47:10.791Z,50.23
2019-01-17T23:49:40.391Z,47.73
2019-01-17T23:52:10.249Z,48.90
2019-01-17T23:54:40.155Z,47.70
2019-01-17T23:57:09.775Z,48.83
2019-01-17T23:59:39.728Z,48.13
